Terminal Aerodrome Forecast
Issued by NWS

Home | Current Version | Previous Version | Text Only | Print | Product List | Glossary Off
Versions: 1 2 3 4 5 6 7 8 9 10 11 12 13 14 15 16

164
FTUS43 KABR 290531
TAFATY
TAF
KATY 290531Z 2906/3006 VRB03KT P6SM FEW040
      TEMPO 2910/2913 4SM BR
     FM291600 13008KT P6SM SKC
     FM300100 VRB05KT P6SM SKC=

USA.gov is the U.S. government's official web portal to all federal, state and local government web resources and services.